createdAt,value
2022-08-02T00:00:13.251Z,16.70
2022-08-02T00:01:13.469Z,16.60
2022-08-02T00:02:14.007Z,16.60
2022-08-02T00:03:13.246Z,16.60
2022-08-02T00:04:13.129Z,16.60
2022-08-02T00:05:13.173Z,16.50
2022-08-02T00:06:13.061Z,16.50
2022-08-02T00:07:13.011Z,16.50
2022-08-02T00:08:13.064Z,16.50
2022-08-02T00:09:13.359Z,16.40
2022-08-02T00:10:13.581Z,16.40
2022-08-02T00:11:13.506Z,16.30
2022-08-02T00:12:13.725Z,16.30
2022-08-02T00:13:12.857Z,16.30
2022-08-02T00:14:13.654Z,16.10
2022-08-02T00:15:15.959Z,16.00
2022-08-02T00:16:16.976Z,16.20
2022-08-02T00:17:13.011Z,16.20
2022-08-02T00:18:13.301Z,16.30
2022-08-02T00:19:13.742Z,16.30
2022-08-02T00:20:14.057Z,16.20
2022-08-02T00:21:13.267Z,16.00
2022-08-02T00:22:13.460Z,16.00
2022-08-02T00:23:13.966Z,16.00
2022-08-02T00:24:28.512Z,15.90
2022-08-02T00:25:13.561Z,16.00
2022-08-02T00:26:13.612Z,16.10
2022-08-02T00:27:14.641Z,16.20
2022-08-02T00:28:13.727Z,16.30
2022-08-02T00:29:13.685Z,16.20
2022-08-02T00:30:13.650Z,16.00
2022-08-02T00:31:13.552Z,16.10
2022-08-02T00:32:13.756Z,16.20
2022-08-02T00:33:13.979Z,16.00
2022-08-02T00:34:29.879Z,16.10
2022-08-02T00:35:13.329Z,16.20
2022-08-02T00:36:13.199Z,16.30
2022-08-02T00:37:13.108Z,16.20
2022-08-02T00:38:12.963Z,16.20
2022-08-02T00:39:35.210Z,16.20
2022-08-02T00:40:14.019Z,16.20
2022-08-02T00:41:13.145Z,16.00
2022-08-02T00:42:13.796Z,16.10
2022-08-02T00:43:14.833Z,16.10
2022-08-02T00:44:13.850Z,16.10
2022-08-02T00:45:14.278Z,16.20
2022-08-02T00:46:13.658Z,16.30
2022-08-02T00:47:19.319Z,16.40
2022-08-02T00:48:13.602Z,16.40
2022-08-02T00:49:13.939Z,16.40
2022-08-02T00:50:13.825Z,16.30
2022-08-02T00:51:13.754Z,16.30
2022-08-02T00:52:14.561Z,16.30
2022-08-02T00:53:13.740Z,16.20
2022-08-02T00:54:13.927Z,16.20
2022-08-02T00:55:13.120Z,16.20
2022-08-02T00:56:13.729Z,16.10
2022-08-02T00:57:13.781Z,16.00
2022-08-02T00:58:13.975Z,16.00
2022-08-02T00:59:13.171Z,16.00
2022-08-02T01:00:13.135Z,16.00
2022-08-02T01:01:13.223Z,16.10
2022-08-02T01:02:13.769Z,16.10
2022-08-02T01:03:13.125Z,16.10
2022-08-02T01:04:13.136Z,16.10
2022-08-02T01:05:13.134Z,16.10
2022-08-02T01:06:13.160Z,16.10
2022-08-02T01:07:14.041Z,16.20
2022-08-02T01:08:13.492Z,16.30
2022-08-02T01:09:13.850Z,16.40
2022-08-02T01:10:13.407Z,16.30
2022-08-02T01:11:13.387Z,16.30
2022-08-02T01:12:14.042Z,16.40
2022-08-02T01:13:13.506Z,16.30
2022-08-02T01:14:13.668Z,16.40
2022-08-02T01:15:13.646Z,16.40
2022-08-02T01:16:13.974Z,16.40
2022-08-02T01:17:13.281Z,16.30
2022-08-02T01:18:13.346Z,16.30
2022-08-02T01:19:16.032Z,16.20
2022-08-02T01:20:13.306Z,16.20
2022-08-02T01:21:13.448Z,16.10
2022-08-02T01:22:13.675Z,16.20
2022-08-02T01:23:13.709Z,16.20
2022-08-02T01:24:13.711Z,16.20
2022-08-02T01:25:13.856Z,16.30
2022-08-02T01:26:13.899Z,16.20
2022-08-02T01:27:12.964Z,16.30
2022-08-02T01:28:12.845Z,16.30
2022-08-02T01:29:13.820Z,16.40
2022-08-02T01:30:13.878Z,16.50
2022-08-02T01:31:14.358Z,16.50
2022-08-02T01:32:14.006Z,16.50
2022-08-02T01:33:13.615Z,16.40
2022-08-02T01:34:13.620Z,16.40
2022-08-02T01:35:13.726Z,16.50
2022-08-02T01:36:13.722Z,16.40
2022-08-02T01:37:13.934Z,16.30
2022-08-02T01:38:13.062Z,16.30
2022-08-02T01:39:26.951Z,16.20
2022-08-02T01:40:13.837Z,16.20
2022-08-02T01:41:13.732Z,16.10
2022-08-02T01:42:14.325Z,16.10
2022-08-02T01:43:13.373Z,16.10
2022-08-02T01:44:13.459Z,16.20
2022-08-02T01:45:13.320Z,16.10
2022-08-02T01:46:13.776Z,16.10
2022-08-02T01:47:14.218Z,16.10
2022-08-02T01:48:13.363Z,16.10
2022-08-02T01:49:13.272Z,16.10
2022-08-02T01:50:13.187Z,16.20
2022-08-02T01:51:13.207Z,16.10
2022-08-02T01:52:13.915Z,16.10
2022-08-02T01:53:13.653Z,16.10
2022-08-02T01:54:14.111Z,16.10
2022-08-02T01:55:18.385Z,16.10
2022-08-02T01:56:13.226Z,16.10
2022-08-02T01:57:13.260Z,16.10
2022-08-02T01:58:13.390Z,16.10
2022-08-02T01:59:13.303Z,16.20
2022-08-02T02:00:13.376Z,16.20
2022-08-02T02:01:15.117Z,16.10
2022-08-02T02:02:15.636Z,16.10
2022-08-02T02:03:13.961Z,16.10
2022-08-02T02:04:13.347Z,16.10
2022-08-02T02:05:13.367Z,16.00
2022-08-02T02:06:13.451Z,16.00
2022-08-02T02:07:13.808Z,16.00
2022-08-02T02:08:13.896Z,15.90
2022-08-02T02:09:13.635Z,15.90
2022-08-02T02:10:13.680Z,15.90
2022-08-02T02:12:09.617Z,15.90
2022-08-02T02:12:14.954Z,15.80
2022-08-02T02:13:13.534Z,15.80
2022-08-02T02:14:13.378Z,15.80
2022-08-02T02:15:13.240Z,15.80
2022-08-02T02:16:13.634Z,15.80
2022-08-02T02:17:52.638Z,15.80
2022-08-02T02:18:13.982Z,15.80
2022-08-02T02:19:13.250Z,15.80
2022-08-02T02:20:13.142Z,15.80
2022-08-02T02:21:13.201Z,15.70
2022-08-02T02:22:13.554Z,15.70
2022-08-02T02:23:14.131Z,15.80
2022-08-02T02:24:13.093Z,15.80
2022-08-02T02:25:15.015Z,15.70
2022-08-02T02:26:13.971Z,15.70
2022-08-02T02:27:14.552Z,15.70
2022-08-02T02:28:13.496Z,15.70
2022-08-02T02:29:13.770Z,15.70
2022-08-02T02:30:13.870Z,15.70
2022-08-02T02:31:13.847Z,15.60
2022-08-02T02:32:14.226Z,15.60
2022-08-02T02:33:13.566Z,15.60
2022-08-02T02:34:14.069Z,15.60
2022-08-02T02:35:13.395Z,15.60
2022-08-02T02:36:13.460Z,15.50
2022-08-02T02:37:13.799Z,15.50
2022-08-02T02:38:14.142Z,15.50
2022-08-02T02:39:14.006Z,15.50
2022-08-02T02:40:13.036Z,15.50
2022-08-02T02:41:13.084Z,15.50
2022-08-02T02:42:13.921Z,15.50
2022-08-02T02:43:13.263Z,15.50
2022-08-02T02:44:13.368Z,15.50
2022-08-02T02:45:13.340Z,15.50
2022-08-02T02:46:13.603Z,15.50
2022-08-02T02:47:13.901Z,15.50
2022-08-02T02:48:13.499Z,15.40
2022-08-02T02:49:13.623Z,15.40
2022-08-02T02:50:13.692Z,15.30
2022-08-02T02:51:13.978Z,15.40
2022-08-02T02:52:13.982Z,15.40
2022-08-02T02:53:13.297Z,15.40
2022-08-02T02:54:32.904Z,15.40
2022-08-02T02:55:13.203Z,15.50
2022-08-02T02:56:13.523Z,15.50
2022-08-02T02:57:14.003Z,15.50
2022-08-02T02:58:13.359Z,15.50
2022-08-02T02:59:13.382Z,15.50
2022-08-02T03:00:13.846Z,15.60
2022-08-02T03:01:13.905Z,15.50
2022-08-02T03:02:13.506Z,15.50
2022-08-02T03:03:14.081Z,15.50
2022-08-02T03:04:13.238Z,15.50
2022-08-02T03:05:13.491Z,15.40
2022-08-02T03:06:14.767Z,15.50
2022-08-02T03:07:14.037Z,15.40
2022-08-02T03:08:13.196Z,15.40
2022-08-02T03:09:13.142Z,15.40
2022-08-02T03:10:13.048Z,15.40
2022-08-02T03:11:13.129Z,15.40
2022-08-02T03:12:13.691Z,15.40
2022-08-02T03:13:13.965Z,15.40
2022-08-02T03:14:14.124Z,15.50
2022-08-02T03:15:13.160Z,15.60
2022-08-02T03:16:18.184Z,15.50
2022-08-02T03:17:13.444Z,15.50
2022-08-02T03:18:13.365Z,15.40
2022-08-02T03:19:13.574Z,15.40
2022-08-02T03:20:13.671Z,15.40
2022-08-02T03:21:13.797Z,15.40
2022-08-02T03:22:14.082Z,15.40
2022-08-02T03:23:13.742Z,15.40
2022-08-02T03:24:14.284Z,15.50
2022-08-02T03:25:13.510Z,15.50
2022-08-02T03:26:13.985Z,15.50
2022-08-02T03:27:13.214Z,15.50
2022-08-02T03:28:13.140Z,15.60
2022-08-02T03:29:13.517Z,15.50
2022-08-02T03:30:13.688Z,15.60
2022-08-02T03:31:14.195Z,15.60
2022-08-02T03:32:13.514Z,15.50
2022-08-02T03:33:14.343Z,15.50
2022-08-02T03:34:18.926Z,15.60
2022-08-02T03:35:14.146Z,15.50
2022-08-02T03:36:13.360Z,15.60
2022-08-02T03:37:13.254Z,15.60
2022-08-02T03:38:13.428Z,15.60
2022-08-02T03:39:13.703Z,15.70
2022-08-02T03:40:13.749Z,15.60
2022-08-02T03:41:14.069Z,15.50
2022-08-02T03:42:15.538Z,15.60
2022-08-02T03:43:13.827Z,15.70
2022-08-02T03:44:13.801Z,15.70
2022-08-02T03:45:13.982Z,15.70
2022-08-02T03:46:13.309Z,15.70
2022-08-02T03:47:13.210Z,15.60
2022-08-02T03:48:33.663Z,15.60
2022-08-02T03:49:13.869Z,15.60
2022-08-02T03:50:12.887Z,15.60
2022-08-02T03:51:13.100Z,15.60
2022-08-02T03:52:13.460Z,15.60
2022-08-02T03:53:19.862Z,15.50
2022-08-02T03:54:13.146Z,15.40
2022-08-02T03:55:13.330Z,15.40
2022-08-02T03:56:13.291Z,15.40
2022-08-02T03:57:13.327Z,15.40
2022-08-02T03:58:13.435Z,15.30
2022-08-02T03:59:13.386Z,15.30
2022-08-02T04:00:13.921Z,15.40
2022-08-02T04:01:13.202Z,15.40
2022-08-02T04:02:13.900Z,15.30
2022-08-02T04:03:13.351Z,15.30
2022-08-02T04:04:13.053Z,15.20
2022-08-02T04:05:13.285Z,15.10
2022-08-02T04:06:13.307Z,15.20
2022-08-02T04:07:13.963Z,15.10
2022-08-02T04:08:35.187Z,15.30
2022-08-02T04:09:13.849Z,15.20
2022-08-02T04:10:13.979Z,15.30
2022-08-02T04:11:13.090Z,15.30
2022-08-02T04:12:13.291Z,15.30
2022-08-02T04:13:13.642Z,15.40
2022-08-02T04:14:13.532Z,15.50
2022-08-02T04:15:13.831Z,15.50
2022-08-02T04:16:14.148Z,15.50
2022-08-02T04:17:13.412Z,15.60
2022-08-02T04:18:18.625Z,15.60
2022-08-02T04:19:14.746Z,15.70
2022-08-02T04:20:13.638Z,15.80
2022-08-02T04:21:13.783Z,15.80
2022-08-02T04:22:14.762Z,15.80
2022-08-02T04:23:14.434Z,15.90
2022-08-02T04:24:13.535Z,15.80
2022-08-02T04:25:15.574Z,15.90
2022-08-02T04:26:14.780Z,15.90
2022-08-02T04:27:49.171Z,15.90
2022-08-02T04:28:16.527Z,15.80
2022-08-02T04:29:13.226Z,15.80
2022-08-02T04:30:13.303Z,15.90
2022-08-02T04:31:13.382Z,15.90
2022-08-02T04:32:13.740Z,15.90
2022-08-02T04:33:13.453Z,15.90
2022-08-02T04:34:15.302Z,16.00
2022-08-02T04:35:20.829Z,16.00
2022-08-02T04:36:14.176Z,16.00
2022-08-02T04:37:13.264Z,16.00
2022-08-02T04:38:13.667Z,16.00
2022-08-02T04:39:13.657Z,16.10
2022-08-02T04:40:13.263Z,16.10
2022-08-02T04:41:13.143Z,16.10
2022-08-02T04:42:13.422Z,16.10
2022-08-02T04:43:13.674Z,16.10
2022-08-02T04:44:13.897Z,16.20
2022-08-02T04:45:16.553Z,16.10
2022-08-02T04:46:13.593Z,16.20
2022-08-02T04:47:13.739Z,16.20
2022-08-02T04:48:13.649Z,16.20
2022-08-02T04:49:13.691Z,16.20
2022-08-02T04:50:13.787Z,16.30
2022-08-02T04:51:14.185Z,16.30
2022-08-02T04:52:13.650Z,16.40
2022-08-02T04:53:13.086Z,16.30
2022-08-02T04:54:13.068Z,16.40
2022-08-02T04:55:13.306Z,16.40
2022-08-02T04:56:13.738Z,16.60
2022-08-02T04:57:13.872Z,16.50
2022-08-02T04:58:38.861Z,16.60
2022-08-02T04:59:13.971Z,16.70
2022-08-02T05:00:13.039Z,16.60
2022-08-02T05:01:13.717Z,16.70
2022-08-02T05:02:14.011Z,16.70
2022-08-02T05:03:13.472Z,16.80
2022-08-02T05:04:13.694Z,16.70
2022-08-02T05:05:13.627Z,16.80
2022-08-02T05:06:19.404Z,16.70
2022-08-02T05:07:13.978Z,16.70
2022-08-02T05:08:13.080Z,16.70
2022-08-02T05:09:18.194Z,16.90
2022-08-02T05:10:13.334Z,16.90
2022-08-02T05:11:13.565Z,16.90
2022-08-02T05:12:13.925Z,17.00
2022-08-02T05:13:13.354Z,17.10
2022-08-02T05:14:13.497Z,17.00
2022-08-02T05:15:13.639Z,17.10
2022-08-02T05:16:13.922Z,17.20
2022-08-02T05:17:12.956Z,17.20
2022-08-02T05:18:12.969Z,17.20
2022-08-02T05:19:13.515Z,17.30
2022-08-02T05:20:18.630Z,17.40
2022-08-02T05:21:13.688Z,17.40
2022-08-02T05:22:14.137Z,17.50
2022-08-02T05:23:13.207Z,17.50
2022-08-02T05:24:13.225Z,17.50
2022-08-02T05:25:13.170Z,17.50
2022-08-02T05:26:13.146Z,17.50
2022-08-02T05:27:17.334Z,17.40
2022-08-02T05:28:13.169Z,17.40
2022-08-02T05:29:13.422Z,17.50
2022-08-02T05:30:13.472Z,17.60
2022-08-02T05:31:15.387Z,17.70
2022-08-02T05:32:13.647Z,17.70
2022-08-02T05:33:13.811Z,17.80
2022-08-02T05:34:14.128Z,17.60
2022-08-02T05:35:13.193Z,17.70
2022-08-02T05:36:13.448Z,17.70
2022-08-02T05:37:13.713Z,17.70
2022-08-02T05:38:13.790Z,17.70
2022-08-02T05:39:18.594Z,17.70
2022-08-02T05:40:13.450Z,17.70
2022-08-02T05:41:13.615Z,17.70
2022-08-02T05:42:14.086Z,17.60
2022-08-02T05:43:13.513Z,17.50
2022-08-02T05:44:13.500Z,17.50
2022-08-02T05:45:13.541Z,17.60
2022-08-02T05:46:13.549Z,17.60
2022-08-02T05:47:13.432Z,17.60
2022-08-02T05:48:13.558Z,17.60
2022-08-02T05:49:13.546Z,17.50
2022-08-02T05:50:13.446Z,17.50
2022-08-02T05:51:13.747Z,17.50
2022-08-02T05:52:14.280Z,17.50
2022-08-02T05:53:13.631Z,17.60
2022-08-02T05:54:13.742Z,17.60
2022-08-02T05:55:14.224Z,17.60
2022-08-02T05:56:13.282Z,17.70
2022-08-02T05:57:13.376Z,17.70
2022-08-02T05:58:13.545Z,17.80
2022-08-02T05:59:13.505Z,17.80
2022-08-02T06:00:13.412Z,17.80
2022-08-02T06:01:13.545Z,17.80
2022-08-02T06:02:14.222Z,18.00
2022-08-02T06:03:13.599Z,18.00
2022-08-02T06:04:13.950Z,18.00
2022-08-02T06:05:13.180Z,18.00
2022-08-02T06:06:13.316Z,18.20
2022-08-02T06:07:13.440Z,18.20
2022-08-02T06:08:13.365Z,18.40
2022-08-02T06:09:14.374Z,18.50
2022-08-02T06:10:13.524Z,18.50
2022-08-02T06:11:13.850Z,18.20
2022-08-02T06:12:14.056Z,18.40
2022-08-02T06:13:14.416Z,18.50
2022-08-02T06:14:14.511Z,18.50
2022-08-02T06:15:13.447Z,18.50
2022-08-02T06:16:14.378Z,18.70
2022-08-02T06:17:13.077Z,18.60
2022-08-02T06:18:13.230Z,18.70
2022-08-02T06:19:13.920Z,18.80
2022-08-02T06:20:13.129Z,19.00
2022-08-02T06:22:31.882Z,19.00
2022-08-02T06:22:35.297Z,19.10
2022-08-02T06:23:13.848Z,19.00
2022-08-02T06:24:12.998Z,19.20
2022-08-02T06:25:50.975Z,19.20
2022-08-02T06:26:13.919Z,19.30
2022-08-02T06:27:13.231Z,19.30
2022-08-02T06:28:13.173Z,19.50
2022-08-02T06:29:13.389Z,19.40
2022-08-02T06:30:13.316Z,19.50
2022-08-02T06:31:15.073Z,19.40
2022-08-02T06:32:13.472Z,19.50
2022-08-02T06:33:13.757Z,19.60
2022-08-02T06:34:14.036Z,19.60
2022-08-02T06:35:13.426Z,19.50
2022-08-02T06:36:13.595Z,19.70
2022-08-02T06:37:12.987Z,19.90
2022-08-02T06:38:13.233Z,20.10
2022-08-02T06:39:13.466Z,20.20
2022-08-02T06:40:13.727Z,20.10
2022-08-02T06:41:14.330Z,20.10
2022-08-02T06:42:13.756Z,20.30
2022-08-02T06:43:13.233Z,20.50
2022-08-02T06:44:45.013Z,20.50
2022-08-02T06:45:13.518Z,20.40
2022-08-02T06:47:08.398Z,20.40
2022-08-02T06:47:13.984Z,20.50
2022-08-02T06:48:13.551Z,20.60
2022-08-02T06:49:13.694Z,20.70
2022-08-02T06:50:13.945Z,20.60
2022-08-02T06:51:13.376Z,20.40
2022-08-02T06:52:13.676Z,20.40
2022-08-02T06:53:13.300Z,20.60
2022-08-02T06:54:13.575Z,20.60
2022-08-02T06:55:15.147Z,20.70
2022-08-02T06:56:13.529Z,20.70
2022-08-02T06:57:13.458Z,20.80
2022-08-02T06:58:13.575Z,20.80
2022-08-02T06:59:13.757Z,20.90
2022-08-02T07:00:13.857Z,21.00
2022-08-02T07:01:14.024Z,20.90
2022-08-02T07:02:13.517Z,20.80
2022-08-02T07:03:13.807Z,21.00
2022-08-02T07:04:15.634Z,21.10
2022-08-02T07:05:13.846Z,20.80
2022-08-02T07:06:13.915Z,21.10
2022-08-02T07:07:13.285Z,21.00
2022-08-02T07:08:13.301Z,21.20
2022-08-02T07:09:21.581Z,21.20
2022-08-02T07:10:13.103Z,21.30
2022-08-02T07:11:13.144Z,21.30
2022-08-02T07:12:13.476Z,21.40
2022-08-02T07:13:14.138Z,21.50
2022-08-02T07:14:13.222Z,21.60
2022-08-02T07:15:13.381Z,21.80
2022-08-02T07:16:13.454Z,21.80
2022-08-02T07:17:13.735Z,21.50
2022-08-02T07:18:13.646Z,21.50
2022-08-02T07:19:13.161Z,21.50
2022-08-02T07:20:13.717Z,21.70
2022-08-02T07:21:14.024Z,21.60
2022-08-02T07:22:13.518Z,21.90
2022-08-02T07:23:13.695Z,22.10
2022-08-02T07:24:13.697Z,21.90
2022-08-02T07:25:13.678Z,21.90
2022-08-02T07:26:13.684Z,22.10
2022-08-02T07:27:13.953Z,21.80
2022-08-02T07:28:19.530Z,22.00
2022-08-02T07:29:13.559Z,22.10
2022-08-02T07:30:15.215Z,22.10
2022-08-02T07:31:14.997Z,21.80
2022-08-02T07:32:15.027Z,22.00
2022-08-02T07:33:38.703Z,22.00
2022-08-02T07:34:14.052Z,22.00
2022-08-02T07:35:13.323Z,22.10
2022-08-02T07:36:16.844Z,22.10
2022-08-02T07:37:35.208Z,22.20
2022-08-02T07:38:13.567Z,22.30
2022-08-02T07:39:13.128Z,22.50
2022-08-02T07:40:14.768Z,22.40
2022-08-02T07:41:13.564Z,22.30
2022-08-02T07:42:14.288Z,22.20
2022-08-02T07:43:13.672Z,22.50
2022-08-02T07:44:13.749Z,22.50
2022-08-02T07:45:13.920Z,22.40
2022-08-02T07:46:12.989Z,22.30
2022-08-02T07:47:14.035Z,22.50
2022-08-02T07:48:13.880Z,22.60
2022-08-02T07:49:13.240Z,22.60
2022-08-02T07:50:13.553Z,22.50
2022-08-02T07:51:17.210Z,22.40
2022-08-02T07:52:13.916Z,22.60
2022-08-02T07:53:13.489Z,22.60
2022-08-02T07:54:16.944Z,22.90
2022-08-02T07:55:13.335Z,23.00
2022-08-02T07:56:13.561Z,22.90
2022-08-02T07:57:15.157Z,22.60
2022-08-02T07:58:13.724Z,22.70
2022-08-02T07:59:13.300Z,22.60
2022-08-02T08:00:13.721Z,23.10
2022-08-02T08:01:14.254Z,23.30
2022-08-02T08:02:13.957Z,23.30
2022-08-02T08:03:13.369Z,23.30
2022-08-02T08:04:13.826Z,23.30
2022-08-02T08:05:13.906Z,23.30
2022-08-02T08:06:12.942Z,23.30
2022-08-02T08:07:12.974Z,23.60
2022-08-02T08:08:17.397Z,23.60
2022-08-02T08:09:15.763Z,23.80
2022-08-02T08:10:14.305Z,23.80
2022-08-02T08:11:13.287Z,23.90
2022-08-02T08:12:13.854Z,23.70
2022-08-02T08:13:13.473Z,23.40
2022-08-02T08:14:16.711Z,23.40
2022-08-02T08:15:14.157Z,23.60
2022-08-02T08:16:14.871Z,23.60
2022-08-02T08:17:12.991Z,23.90
2022-08-02T08:18:12.998Z,23.80
2022-08-02T08:19:13.008Z,23.80
2022-08-02T08:20:15.936Z,23.90
2022-08-02T08:21:13.399Z,23.90
2022-08-02T08:22:13.937Z,23.90
2022-08-02T08:23:13.781Z,23.60
2022-08-02T08:24:13.807Z,23.80
2022-08-02T08:25:13.880Z,23.90
2022-08-02T08:26:15.770Z,24.10
2022-08-02T08:27:14.766Z,24.10
2022-08-02T08:28:13.919Z,24.40
2022-08-02T08:29:12.888Z,24.30
2022-08-02T08:30:14.240Z,24.20
2022-08-02T08:31:17.067Z,24.30
2022-08-02T08:32:18.123Z,24.50
2022-08-02T08:33:13.829Z,24.30
2022-08-02T08:34:14.186Z,24.40
2022-08-02T08:35:13.684Z,24.40
2022-08-02T08:36:13.904Z,24.30
2022-08-02T08:37:16.521Z,24.30
2022-08-02T08:38:13.906Z,24.60
2022-08-02T08:39:12.924Z,24.50
2022-08-02T08:40:13.069Z,24.60
2022-08-02T08:41:15.077Z,24.70
2022-08-02T08:42:15.110Z,24.90
2022-08-02T08:43:13.786Z,24.70
2022-08-02T08:44:13.800Z,24.90
2022-08-02T08:45:15.417Z,25.00
2022-08-02T08:46:13.756Z,24.80
2022-08-02T08:47:13.791Z,24.80
2022-08-02T08:48:13.796Z,24.90
2022-08-02T08:49:13.917Z,25.10
2022-08-02T08:50:20.123Z,25.10
2022-08-02T08:51:12.971Z,25.00
2022-08-02T08:52:13.212Z,25.20
2022-08-02T08:53:13.889Z,25.40
2022-08-02T08:54:13.472Z,25.50
2022-08-02T08:55:13.707Z,25.40
2022-08-02T08:56:16.229Z,25.60
2022-08-02T08:57:14.142Z,25.40
2022-08-02T08:58:13.174Z,24.90
2022-08-02T08:59:13.453Z,25.00
2022-08-02T09:00:13.561Z,25.20
2022-08-02T09:01:13.616Z,25.10
2022-08-02T09:02:20.335Z,25.40
2022-08-02T09:03:13.579Z,25.40
2022-08-02T09:04:13.447Z,24.90
2022-08-02T09:05:13.871Z,24.90
2022-08-02T09:06:15.358Z,24.90
2022-08-02T09:07:13.410Z,25.20
2022-08-02T09:08:16.839Z,25.40
2022-08-02T09:09:15.033Z,25.70
2022-08-02T09:10:13.199Z,25.60
2022-08-02T09:11:13.762Z,25.40
2022-08-02T09:12:14.702Z,25.70
2022-08-02T09:13:37.956Z,25.50
2022-08-02T09:14:15.014Z,25.20
2022-08-02T09:15:15.926Z,25.30
2022-08-02T09:16:14.198Z,25.50
2022-08-02T09:17:14.101Z,25.50
2022-08-02T09:18:13.080Z,25.70
2022-08-02T09:19:14.324Z,25.60
2022-08-02T09:20:13.612Z,25.80
2022-08-02T09:21:13.887Z,25.80
2022-08-02T09:22:16.069Z,26.10
2022-08-02T09:23:13.575Z,25.50
2022-08-02T09:24:15.067Z,25.60
2022-08-02T09:25:15.094Z,25.90
2022-08-02T09:26:14.588Z,26.20
2022-08-02T09:27:13.946Z,26.00
2022-08-02T09:28:13.177Z,25.90
2022-08-02T09:29:13.093Z,26.20
2022-08-02T09:30:13.954Z,25.90
2022-08-02T09:31:14.922Z,26.00
2022-08-02T09:32:13.199Z,25.80
2022-08-02T09:33:13.615Z,26.60
2022-08-02T09:34:13.704Z,26.40
2022-08-02T09:35:13.640Z,26.20
2022-08-02T09:36:13.661Z,27.10
2022-08-02T09:37:13.593Z,27.60
2022-08-02T09:38:13.653Z,27.10
2022-08-02T09:39:15.327Z,27.80
2022-08-02T09:40:13.635Z,28.70
2022-08-02T09:41:13.647Z,28.90
2022-08-02T09:42:14.856Z,28.50
2022-08-02T09:43:14.788Z,28.50
2022-08-02T09:44:16.089Z,29.10
2022-08-02T09:45:13.713Z,28.50
2022-08-02T09:46:15.443Z,28.80
2022-08-02T09:47:14.118Z,28.50
2022-08-02T09:48:13.615Z,28.10
2022-08-02T09:49:13.902Z,28.00
2022-08-02T09:50:15.167Z,28.10
2022-08-02T09:51:13.718Z,28.00
2022-08-02T09:52:13.537Z,28.90
2022-08-02T09:53:13.943Z,28.90
2022-08-02T09:54:13.318Z,28.40
2022-08-02T09:55:13.600Z,28.70
2022-08-02T09:56:35.828Z,27.60
2022-08-02T09:57:15.309Z,27.10
2022-08-02T09:58:13.886Z,27.30
2022-08-02T09:59:13.608Z,27.90
2022-08-02T10:00:37.048Z,28.60
2022-08-02T10:01:14.202Z,28.80
2022-08-02T10:02:14.822Z,28.90
2022-08-02T10:03:22.066Z,29.90
2022-08-02T10:04:20.545Z,30.70
2022-08-02T10:05:15.323Z,31.10
2022-08-02T10:06:14.430Z,31.00
2022-08-02T10:07:15.792Z,29.90
2022-08-02T10:08:15.296Z,30.10
2022-08-02T10:09:13.281Z,30.90
2022-08-02T10:10:13.191Z,31.10
2022-08-02T10:11:14.053Z,29.70
2022-08-02T10:12:13.458Z,29.60
2022-08-02T10:13:14.075Z,29.30
2022-08-02T10:14:13.902Z,29.30
2022-08-02T10:15:14.404Z,28.50
2022-08-02T10:16:13.476Z,28.80
2022-08-02T10:17:13.403Z,28.40
2022-08-02T10:18:37.137Z,28.00
2022-08-02T10:19:16.048Z,27.70
2022-08-02T10:20:14.670Z,28.00
2022-08-02T10:21:13.631Z,27.90
2022-08-02T10:22:15.416Z,27.50
2022-08-02T10:23:15.961Z,27.40
2022-08-02T10:24:14.476Z,27.20
2022-08-02T10:25:16.482Z,26.70
2022-08-02T10:26:13.532Z,27.00
2022-08-02T10:27:13.638Z,27.40
2022-08-02T10:28:16.872Z,27.60
2022-08-02T10:29:13.925Z,27.80
2022-08-02T10:30:13.221Z,27.40
2022-08-02T10:31:13.296Z,27.20
2022-08-02T10:32:15.349Z,28.00
2022-08-02T10:33:13.183Z,28.80
2022-08-02T10:34:15.110Z,29.30
2022-08-02T10:35:19.980Z,28.40
2022-08-02T10:36:13.495Z,29.10
2022-08-02T10:37:14.859Z,28.70
2022-08-02T10:38:13.382Z,28.50
2022-08-02T10:39:16.052Z,28.40
2022-08-02T10:40:13.142Z,28.10
2022-08-02T10:41:13.452Z,28.40
2022-08-02T10:42:15.605Z,28.60
2022-08-02T10:43:15.379Z,28.80
2022-08-02T10:44:24.208Z,28.90
2022-08-02T10:45:13.356Z,29.40
2022-08-02T10:46:15.270Z,29.60
2022-08-02T10:47:15.111Z,28.50
2022-08-02T10:48:14.267Z,27.50
2022-08-02T10:49:38.050Z,27.60
2022-08-02T10:50:14.870Z,27.60
2022-08-02T10:51:15.852Z,27.90
2022-08-02T10:52:15.498Z,28.40
2022-08-02T10:53:15.606Z,27.70
2022-08-02T10:54:15.333Z,27.70
2022-08-02T10:55:14.955Z,27.30
2022-08-02T10:56:15.705Z,27.30
2022-08-02T10:57:15.303Z,27.40
2022-08-02T10:58:13.949Z,28.30
2022-08-02T10:59:12.995Z,29.00
2022-08-02T11:00:17.179Z,29.90
2022-08-02T11:01:13.726Z,30.20
2022-08-02T11:02:16.363Z,30.40
2022-08-02T11:03:15.668Z,29.30
2022-08-02T11:04:13.761Z,29.50
2022-08-02T11:05:15.365Z,30.20
2022-08-02T11:06:25.941Z,31.30
2022-08-02T11:07:14.754Z,30.90
2022-08-02T11:08:16.213Z,31.20
2022-08-02T11:09:15.684Z,30.40
2022-08-02T11:10:17.113Z,30.60
2022-08-02T11:11:17.594Z,30.10
2022-08-02T11:12:17.572Z,29.70
2022-08-02T11:13:16.323Z,30.30
2022-08-02T11:14:17.546Z,30.30
2022-08-02T11:15:14.431Z,30.30
2022-08-02T11:16:15.083Z,30.10
2022-08-02T11:17:17.026Z,29.50
2022-08-02T11:18:17.579Z,30.10
2022-08-02T11:19:17.201Z,29.10
2022-08-02T11:20:15.374Z,29.50
2022-08-02T11:21:14.608Z,30.70
2022-08-02T11:22:21.229Z,30.90
2022-08-02T11:23:13.210Z,30.80
2022-08-02T11:24:17.840Z,30.70
2022-08-02T11:25:13.786Z,30.10
2022-08-02T11:26:18.487Z,30.40
2022-08-02T11:27:18.559Z,30.40
2022-08-02T11:28:14.603Z,30.30
2022-08-02T11:29:16.299Z,30.40
2022-08-02T11:30:16.816Z,30.10
2022-08-02T11:31:18.937Z,28.80
2022-08-02T11:32:18.330Z,29.00
2022-08-02T11:33:19.085Z,29.10
2022-08-02T11:34:36.756Z,29.00
2022-08-02T11:35:18.016Z,29.30
2022-08-02T11:36:17.792Z,29.90
2022-08-02T11:37:22.179Z,29.40
2022-08-02T11:38:18.772Z,28.40
2022-08-02T11:39:19.908Z,29.70
2022-08-02T11:40:20.330Z,30.20
2022-08-02T11:41:47.071Z,30.00
2022-08-02T11:42:18.538Z,30.30
2022-08-02T11:43:16.837Z,30.00
2022-08-02T11:44:19.346Z,30.00
2022-08-02T11:45:20.810Z,31.00
2022-08-02T11:46:20.184Z,31.30
2022-08-02T11:47:15.576Z,30.90
2022-08-02T11:48:18.355Z,30.30
2022-08-02T11:49:18.643Z,30.30
2022-08-02T11:50:18.688Z,28.70
2022-08-02T11:51:21.084Z,29.40
2022-08-02T11:52:19.807Z,29.50
2022-08-02T11:53:19.597Z,28.90
2022-08-02T11:54:19.197Z,28.90
2022-08-02T11:55:20.170Z,29.10
2022-08-02T11:56:21.711Z,30.00
2022-08-02T11:57:19.799Z,30.20
2022-08-02T11:58:19.273Z,30.20
2022-08-02T11:59:20.264Z,30.50
2022-08-02T12:00:21.440Z,30.20
2022-08-02T12:01:17.897Z,29.50
2022-08-02T12:02:23.764Z,29.40
2022-08-02T12:03:20.055Z,29.40
2022-08-02T12:04:19.376Z,29.50
2022-08-02T12:05:19.138Z,29.70
2022-08-02T12:06:17.529Z,30.20
2022-08-02T12:07:19.433Z,30.40
2022-08-02T12:08:21.999Z,29.80
2022-08-02T12:09:18.685Z,30.40
2022-08-02T12:10:20.793Z,30.60
2022-08-02T12:11:21.172Z,30.20
2022-08-02T12:12:21.366Z,30.20
2022-08-02T12:13:20.835Z,29.90
2022-08-02T12:14:16.723Z,29.30
2022-08-02T12:15:19.896Z,29.50
2022-08-02T12:16:17.788Z,29.60
2022-08-02T12:17:20.064Z,30.00
2022-08-02T12:18:19.241Z,29.60
2022-08-02T12:19:20.084Z,28.50
2022-08-02T12:20:19.064Z,29.10
2022-08-02T12:21:19.158Z,29.60
2022-08-02T12:22:19.531Z,29.90
2022-08-02T12:23:17.311Z,30.10
2022-08-02T12:24:18.936Z,29.30
2022-08-02T12:25:34.162Z,28.90
2022-08-02T12:26:20.889Z,29.10
2022-08-02T12:27:18.584Z,29.30
2022-08-02T12:28:20.808Z,29.80
2022-08-02T12:29:57.815Z,30.20
2022-08-02T12:30:27.432Z,30.00
2022-08-02T12:31:16.771Z,29.90
2022-08-02T12:32:17.914Z,29.30
2022-08-02T12:33:20.186Z,29.20
2022-08-02T12:34:18.694Z,30.20
2022-08-02T12:35:26.810Z,31.20
2022-08-02T12:36:20.876Z,30.90
2022-08-02T12:37:16.807Z,31.30
2022-08-02T12:38:20.744Z,31.20
2022-08-02T12:39:20.161Z,31.30
2022-08-02T12:40:24.959Z,31.20
2022-08-02T12:41:31.048Z,31.10
2022-08-02T12:42:19.093Z,31.10
2022-08-02T12:43:20.330Z,31.40
2022-08-02T12:44:21.698Z,31.30
2022-08-02T12:45:21.074Z,30.90
2022-08-02T12:46:20.366Z,30.70
2022-08-02T12:47:21.569Z,29.70
2022-08-02T12:48:22.119Z,29.30
2022-08-02T12:49:20.373Z,29.40
2022-08-02T12:50:19.991Z,29.40
2022-08-02T12:51:20.489Z,29.80
2022-08-02T12:52:20.914Z,30.00